createdAt,value
2023-04-19T00:00:07.179Z,1011.45
2023-04-19T00:01:07.172Z,1011.42
2023-04-19T00:02:07.250Z,1011.39
2023-04-19T00:03:07.360Z,1011.46
2023-04-19T00:04:07.261Z,1011.33
2023-04-19T00:05:07.159Z,1011.33
2023-04-19T00:06:07.111Z,1011.38
2023-04-19T00:07:07.110Z,1011.38
2023-04-19T00:08:07.101Z,1011.36
2023-04-19T00:09:12.108Z,1011.36
2023-04-19T00:10:07.069Z,1011.34
2023-04-19T00:11:07.084Z,1011.34
2023-04-19T00:12:07.052Z,1011.33
2023-04-19T00:13:07.036Z,1011.30
2023-04-19T00:14:07.025Z,1011.29
2023-04-19T00:15:07.009Z,1011.34
2023-04-19T00:16:06.996Z,1011.36
2023-04-19T00:17:07.116Z,1011.32
2023-04-19T00:18:06.995Z,1011.33
2023-04-19T00:19:06.965Z,1011.32
2023-04-19T00:20:11.990Z,1011.30
2023-04-19T00:21:06.952Z,1011.35
2023-04-19T00:22:06.947Z,1011.29
2023-04-19T00:23:06.929Z,1011.31
2023-04-19T00:24:06.903Z,1011.31
2023-04-19T00:25:06.898Z,1011.33
2023-04-19T00:26:06.890Z,1011.28
2023-04-19T00:27:06.906Z,1011.34
2023-04-19T00:28:06.861Z,1011.32
2023-04-19T00:29:06.861Z,1011.27
2023-04-19T00:30:06.834Z,1011.25
2023-04-19T00:31:11.863Z,1011.21
2023-04-19T00:32:06.829Z,1011.22
2023-04-19T00:33:06.911Z,1011.26
2023-04-19T00:34:06.790Z,1011.28
2023-04-19T00:35:06.785Z,1011.29
2023-04-19T00:36:06.766Z,1011.20
2023-04-19T00:37:06.780Z,1011.20
2023-04-19T00:38:06.743Z,1011.28
2023-04-19T00:39:06.731Z,1011.28
2023-04-19T00:40:06.726Z,1011.15
2023-04-19T00:41:06.721Z,1011.28
2023-04-19T00:42:11.755Z,1011.19
2023-04-19T00:43:06.691Z,1011.18
2023-04-19T00:44:06.686Z,1011.20
2023-04-19T00:45:06.662Z,1011.25
2023-04-19T00:46:06.663Z,1011.22
2023-04-19T00:47:06.659Z,1011.27
2023-04-19T00:48:06.688Z,1011.17
2023-04-19T00:49:06.624Z,1011.16
2023-04-19T00:50:06.609Z,1011.28
2023-04-19T00:51:06.595Z,1011.32
2023-04-19T00:52:06.601Z,1011.24
2023-04-19T00:53:11.602Z,1011.24
2023-04-19T00:54:06.573Z,1011.23
2023-04-19T00:55:06.554Z,1011.17
2023-04-19T00:56:06.545Z,1011.23
2023-04-19T00:57:06.538Z,1011.31
2023-04-19T00:58:06.537Z,1011.24
2023-04-19T00:59:06.512Z,1011.22
2023-04-19T01:00:06.497Z,1011.25
2023-04-19T01:01:06.647Z,1011.21
2023-04-19T01:02:06.543Z,1011.21
2023-04-19T01:03:06.609Z,1011.27
2023-04-19T01:04:11.551Z,1011.20
2023-04-19T01:05:06.447Z,1011.20
2023-04-19T01:06:06.430Z,1011.21
2023-04-19T01:07:06.425Z,1011.21
2023-04-19T01:08:06.399Z,1011.26
2023-04-19T01:09:06.390Z,1011.21
2023-04-19T01:10:06.394Z,1011.24
2023-04-19T01:11:06.371Z,1011.10
2023-04-19T01:12:06.365Z,1011.14
2023-04-19T01:13:06.349Z,1011.19
2023-04-19T01:14:06.357Z,1011.14
2023-04-19T01:15:11.344Z,1011.14
2023-04-19T01:16:06.363Z,1011.09
2023-04-19T01:17:06.325Z,1011.05
2023-04-19T01:18:06.309Z,1011.03
2023-04-19T01:19:06.282Z,1011.06
2023-04-19T01:20:06.275Z,1011.08
2023-04-19T01:21:06.253Z,1011.03
2023-04-19T01:22:06.244Z,1011.02
2023-04-19T01:23:06.261Z,1011.00
2023-04-19T01:24:06.218Z,1010.98
2023-04-19T01:25:06.203Z,1010.98
2023-04-19T01:26:11.218Z,1011.04
2023-04-19T01:27:06.199Z,1010.95
2023-04-19T01:28:06.203Z,1010.92
2023-04-19T01:29:06.176Z,1010.95
2023-04-19T01:30:06.182Z,1010.96
2023-04-19T01:31:06.192Z,1010.93
2023-04-19T01:32:06.126Z,1010.93
2023-04-19T01:33:06.200Z,1010.96
2023-04-19T01:34:06.111Z,1010.97
2023-04-19T01:35:06.096Z,1010.92
2023-04-19T01:36:06.079Z,1010.90
2023-04-19T01:37:11.087Z,1010.90
2023-04-19T01:38:06.068Z,1010.86
2023-04-19T01:39:06.047Z,1010.91
2023-04-19T01:40:06.041Z,1010.94
2023-04-19T01:41:06.032Z,1010.89
2023-04-19T01:42:06.058Z,1010.88
2023-04-19T01:43:06.006Z,1010.86
2023-04-19T01:44:05.997Z,1010.86
2023-04-19T01:45:05.981Z,1010.86
2023-04-19T01:46:06.000Z,1010.85
2023-04-19T01:47:06.078Z,1010.82
2023-04-19T01:48:10.977Z,1010.82
2023-04-19T01:49:05.933Z,1010.87
2023-04-19T01:50:05.926Z,1010.82
2023-04-19T01:51:05.907Z,1010.81
2023-04-19T01:52:05.899Z,1010.69
2023-04-19T01:53:05.911Z,1010.77
2023-04-19T01:54:05.879Z,1010.81
2023-04-19T01:55:05.865Z,1010.75
2023-04-19T01:56:05.865Z,1010.72
2023-04-19T01:57:05.839Z,1010.74
2023-04-19T01:58:05.841Z,1010.72
2023-04-19T01:59:10.859Z,1010.69
2023-04-19T02:00:05.809Z,1010.68
2023-04-19T02:01:05.851Z,1010.66
2023-04-19T02:02:05.894Z,1010.70
2023-04-19T02:03:05.931Z,1010.66
2023-04-19T02:04:05.841Z,1010.66
2023-04-19T02:05:05.750Z,1010.63
2023-04-19T02:06:05.741Z,1010.65
2023-04-19T02:07:05.737Z,1010.66
2023-04-19T02:08:05.735Z,1010.68
2023-04-19T02:09:05.725Z,1010.66
2023-04-19T02:10:10.719Z,1010.67
2023-04-19T02:11:05.676Z,1010.63
2023-04-19T02:12:05.678Z,1010.61
2023-04-19T02:13:05.681Z,1010.59
2023-04-19T02:14:05.648Z,1010.54
2023-04-19T02:15:05.640Z,1010.54
2023-04-19T02:16:05.681Z,1010.52
2023-04-19T02:17:05.611Z,1010.50
2023-04-19T02:18:05.686Z,1010.52
2023-04-19T02:19:05.606Z,1010.60
2023-04-19T02:20:05.581Z,1010.57
2023-04-19T02:21:10.589Z,1010.56
2023-04-19T02:22:05.564Z,1010.56
2023-04-19T02:23:05.557Z,1010.57
2023-04-19T02:24:05.542Z,1010.59
2023-04-19T02:25:05.524Z,1010.58
2023-04-19T02:26:05.510Z,1010.55
2023-04-19T02:27:05.503Z,1010.58
2023-04-19T02:28:05.511Z,1010.61
2023-04-19T02:29:06.964Z,1010.59
2023-04-19T02:30:05.481Z,1010.54
2023-04-19T02:31:05.456Z,1010.53
2023-04-19T02:32:10.496Z,1010.54
2023-04-19T02:33:05.470Z,1010.56
2023-04-19T02:34:05.438Z,1010.57
2023-04-19T02:35:05.428Z,1010.58
2023-04-19T02:36:05.396Z,1010.57
2023-04-19T02:37:05.386Z,1010.60
2023-04-19T02:38:05.380Z,1010.63
2023-04-19T02:39:05.368Z,1010.56
2023-04-19T02:40:05.361Z,1010.54
2023-04-19T02:41:05.341Z,1010.50
2023-04-19T02:42:05.330Z,1010.55
2023-04-19T02:43:10.355Z,1010.48
2023-04-19T02:44:05.307Z,1010.47
2023-04-19T02:45:05.295Z,1010.55
2023-04-19T02:46:05.346Z,1010.47
2023-04-19T02:47:05.281Z,1010.49
2023-04-19T02:48:05.324Z,1010.47
2023-04-19T02:49:05.247Z,1010.47
2023-04-19T02:50:05.470Z,1010.51
2023-04-19T02:51:05.229Z,1010.49
2023-04-19T02:52:05.231Z,1010.44
2023-04-19T02:53:05.214Z,1010.45
2023-04-19T02:54:10.212Z,1010.45
2023-04-19T02:55:05.196Z,1010.47
2023-04-19T02:56:05.170Z,1010.45
2023-04-19T02:57:05.178Z,1010.45
2023-04-19T02:58:05.157Z,1010.43
2023-04-19T02:59:05.135Z,1010.41
2023-04-19T03:00:05.123Z,1010.33
2023-04-19T03:01:05.144Z,1010.36
2023-04-19T03:02:05.116Z,1010.44
2023-04-19T03:03:05.191Z,1010.41
2023-04-19T03:04:05.104Z,1010.36
2023-04-19T03:05:10.100Z,1010.43
2023-04-19T03:06:05.075Z,1010.44
2023-04-19T03:07:05.042Z,1010.43
2023-04-19T03:08:05.036Z,1010.36
2023-04-19T03:09:05.017Z,1010.37
2023-04-19T03:10:05.030Z,1010.44
2023-04-19T03:11:04.992Z,1010.45
2023-04-19T03:12:04.981Z,1010.41
2023-04-19T03:13:04.984Z,1010.43
2023-04-19T03:14:04.957Z,1010.48
2023-04-19T03:15:04.948Z,1010.39
2023-04-19T03:16:10.014Z,1010.40
2023-04-19T03:17:04.932Z,1010.29
2023-04-19T03:18:04.960Z,1010.33
2023-04-19T03:19:04.901Z,1010.32
2023-04-19T03:20:04.901Z,1010.36
2023-04-19T03:21:04.945Z,1010.30
2023-04-19T03:22:04.868Z,1010.31
2023-04-19T03:23:04.892Z,1010.28
2023-04-19T03:24:04.837Z,1010.29
2023-04-19T03:25:04.829Z,1010.25
2023-04-19T03:26:04.826Z,1010.26
2023-04-19T03:27:09.824Z,1010.23
2023-04-19T03:28:04.802Z,1010.18
2023-04-19T03:29:04.790Z,1010.24
2023-04-19T03:30:04.777Z,1010.21
2023-04-19T03:31:04.762Z,1010.25
2023-04-19T03:32:04.761Z,1010.26
2023-04-19T03:33:04.794Z,1010.23
2023-04-19T03:34:04.721Z,1010.24
2023-04-19T03:35:04.715Z,1010.21
2023-04-19T03:36:04.705Z,1010.23
2023-04-19T03:37:04.725Z,1010.14
2023-04-19T03:38:09.704Z,1010.10
2023-04-19T03:39:04.666Z,1010.19
2023-04-19T03:40:04.647Z,1010.13
2023-04-19T03:41:04.657Z,1010.16
2023-04-19T03:42:04.626Z,1010.16
2023-04-19T03:43:04.633Z,1010.11
2023-04-19T03:44:04.618Z,1010.20
2023-04-19T03:45:04.589Z,1010.15
2023-04-19T03:46:04.595Z,1010.14
2023-04-19T03:47:04.574Z,1010.05
2023-04-19T03:48:04.624Z,1010.10
2023-04-19T03:49:09.569Z,1010.13
2023-04-19T03:50:04.542Z,1010.18
2023-04-19T03:51:04.520Z,1010.11
2023-04-19T03:52:04.510Z,1010.07
2023-04-19T03:53:04.543Z,1009.99
2023-04-19T03:54:04.491Z,1010.02
2023-04-19T03:55:04.476Z,1010.04
2023-04-19T03:56:04.474Z,1010.00
2023-04-19T03:57:04.448Z,1010.05
2023-04-19T03:58:04.445Z,1010.00
2023-04-19T03:59:04.451Z,1010.01
2023-04-19T04:00:09.441Z,1009.94
2023-04-19T04:01:04.407Z,1009.99
2023-04-19T04:02:04.471Z,1010.00
2023-04-19T04:03:04.565Z,1010.02
2023-04-19T04:04:05.145Z,1009.98
2023-04-19T04:05:04.421Z,1010.01
2023-04-19T04:06:04.349Z,1010.01
2023-04-19T04:07:04.349Z,1010.00
2023-04-19T04:08:04.335Z,1010.04
2023-04-19T04:09:04.334Z,1010.03
2023-04-19T04:10:04.302Z,1010.08
2023-04-19T04:11:09.319Z,1010.04
2023-04-19T04:12:04.273Z,1010.06
2023-04-19T04:13:04.280Z,1010.08
2023-04-19T04:14:04.262Z,1010.06
2023-04-19T04:15:04.247Z,1010.05
2023-04-19T04:16:04.281Z,1010.08
2023-04-19T04:17:04.231Z,1010.12
2023-04-19T04:18:04.258Z,1010.03
2023-04-19T04:19:04.207Z,1010.07
2023-04-19T04:20:04.185Z,1010.04
2023-04-19T04:21:04.214Z,1010.03
2023-04-19T04:22:09.181Z,1010.03
2023-04-19T04:23:04.157Z,1010.08
2023-04-19T04:24:04.150Z,1010.14
2023-04-19T04:25:04.158Z,1010.10
2023-04-19T04:26:04.120Z,1010.11
2023-04-19T04:27:04.108Z,1010.08
2023-04-19T04:28:04.106Z,1010.11
2023-04-19T04:29:04.106Z,1010.12
2023-04-19T04:30:04.081Z,1010.17
2023-04-19T04:31:04.067Z,1010.19
2023-04-19T04:32:04.068Z,1010.15
2023-04-19T04:33:09.080Z,1010.17
2023-04-19T04:34:04.035Z,1010.15
2023-04-19T04:35:04.038Z,1010.15
2023-04-19T04:36:04.014Z,1010.21
2023-04-19T04:37:04.025Z,1010.29
2023-04-19T04:38:10.998Z,1010.27
2023-04-19T04:39:03.986Z,1010.23
2023-04-19T04:40:03.981Z,1010.25
2023-04-19T04:41:03.987Z,1010.22
2023-04-19T04:42:03.955Z,1010.27
2023-04-19T04:43:03.954Z,1010.23
2023-04-19T04:44:12.556Z,1010.17
2023-04-19T04:45:03.922Z,1010.18
2023-04-19T04:46:03.968Z,1010.16
2023-04-19T04:47:03.903Z,1010.22
2023-04-19T04:48:03.948Z,1010.15
2023-04-19T04:49:03.875Z,1010.17
2023-04-19T04:50:03.865Z,1010.24
2023-04-19T04:51:03.854Z,1010.19
2023-04-19T04:52:03.849Z,1010.20
2023-04-19T04:53:03.840Z,1010.20
2023-04-19T04:54:03.828Z,1010.20
2023-04-19T04:55:08.835Z,1010.16
2023-04-19T04:56:03.800Z,1010.19
2023-04-19T04:57:03.855Z,1010.12
2023-04-19T04:58:03.778Z,1010.17
2023-04-19T04:59:03.793Z,1010.19
2023-04-19T05:00:03.752Z,1010.21
2023-04-19T05:01:03.771Z,1010.17
2023-04-19T05:02:03.786Z,1010.19
2023-04-19T05:03:03.960Z,1010.24
2023-04-19T05:04:03.762Z,1010.24
2023-04-19T05:05:03.714Z,1010.24
2023-04-19T05:06:08.710Z,1010.24
2023-04-19T05:07:03.682Z,1010.24
2023-04-19T05:08:03.684Z,1010.25
2023-04-19T05:09:03.677Z,1010.30
2023-04-19T05:10:03.634Z,1010.20
2023-04-19T05:11:03.631Z,1010.26
2023-04-19T05:12:03.621Z,1010.28
2023-04-19T05:13:03.700Z,1010.32
2023-04-19T05:14:03.608Z,1010.26
2023-04-19T05:15:03.583Z,1010.30
2023-04-19T05:16:03.626Z,1010.24
2023-04-19T05:17:08.589Z,1010.28
2023-04-19T05:18:03.589Z,1010.36
2023-04-19T05:19:03.605Z,1010.33
2023-04-19T05:20:03.523Z,1010.29
2023-04-19T05:21:03.514Z,1010.34
2023-04-19T05:22:03.524Z,1010.31
2023-04-19T05:23:03.520Z,1010.37
2023-04-19T05:24:03.498Z,1010.26
2023-04-19T05:25:03.461Z,1010.25
2023-04-19T05:26:03.453Z,1010.29
2023-04-19T05:27:03.452Z,1010.26
2023-04-19T05:28:08.490Z,1010.29
2023-04-19T05:29:03.438Z,1010.33
2023-04-19T05:30:03.410Z,1010.33
2023-04-19T05:31:03.409Z,1010.34
2023-04-19T05:32:03.385Z,1010.32
2023-04-19T05:33:03.429Z,1010.34
2023-04-19T05:34:03.384Z,1010.32
2023-04-19T05:35:03.367Z,1010.34
2023-04-19T05:36:03.350Z,1010.27
2023-04-19T05:37:03.339Z,1010.32
2023-04-19T05:38:03.322Z,1010.33
2023-04-19T05:39:08.336Z,1010.26
2023-04-19T05:40:03.292Z,1010.33
2023-04-19T05:41:03.290Z,1010.24
2023-04-19T05:42:03.290Z,1010.33
2023-04-19T05:43:03.262Z,1010.33
2023-04-19T05:44:03.287Z,1010.34
2023-04-19T05:45:05.866Z,1010.31
2023-04-19T05:46:03.239Z,1010.28
2023-04-19T05:47:03.223Z,1010.28
2023-04-19T05:48:03.233Z,1010.30
2023-04-19T05:49:03.202Z,1010.26
2023-04-19T05:50:08.222Z,1010.31
2023-04-19T05:51:03.167Z,1010.31
2023-04-19T05:52:03.158Z,1010.31
2023-04-19T05:53:03.161Z,1010.33
2023-04-19T05:54:03.167Z,1010.26
2023-04-19T05:55:03.125Z,1010.21
2023-04-19T05:56:03.128Z,1010.30
2023-04-19T05:57:03.124Z,1010.29
2023-04-19T05:58:03.089Z,1010.24
2023-04-19T05:59:03.097Z,1010.30
2023-04-19T06:00:03.297Z,1010.30
2023-04-19T06:01:08.163Z,1010.42
2023-04-19T06:02:03.199Z,1010.38
2023-04-19T06:03:03.212Z,1010.36
2023-04-19T06:04:03.151Z,1010.36
2023-04-19T06:05:08.489Z,1010.34
2023-04-19T06:06:03.043Z,1010.31
2023-04-19T06:07:04.514Z,1010.30
2023-04-19T06:08:03.409Z,1010.33
2023-04-19T06:09:02.987Z,1010.30
2023-04-19T06:10:02.951Z,1010.32
2023-04-19T06:11:11.810Z,1010.36
2023-04-19T06:12:08.952Z,1010.33
2023-04-19T06:13:02.919Z,1010.33
2023-04-19T06:14:02.925Z,1010.34
2023-04-19T06:15:02.901Z,1010.31
2023-04-19T06:16:03.018Z,1010.34
2023-04-19T06:17:02.878Z,1010.38
2023-04-19T06:18:02.925Z,1010.42
2023-04-19T06:19:02.870Z,1010.43
2023-04-19T06:20:02.848Z,1010.43
2023-04-19T06:21:02.825Z,1010.37
2023-04-19T06:22:02.820Z,1010.39
2023-04-19T06:23:07.827Z,1010.41
2023-04-19T06:24:02.809Z,1010.45
2023-04-19T06:25:02.781Z,1010.47
2023-04-19T06:26:02.772Z,1010.43
2023-04-19T06:27:02.755Z,1010.46
2023-04-19T06:28:02.746Z,1010.41
2023-04-19T06:29:02.768Z,1010.40
2023-04-19T06:30:02.736Z,1010.40
2023-04-19T06:31:02.841Z,1010.33
2023-04-19T06:32:02.769Z,1010.30
2023-04-19T06:33:02.752Z,1010.39
2023-04-19T06:34:07.714Z,1010.35
2023-04-19T06:35:02.676Z,1010.40
2023-04-19T06:36:02.670Z,1010.37
2023-04-19T06:37:02.646Z,1010.31
2023-04-19T06:38:02.629Z,1010.36
2023-04-19T06:39:02.652Z,1010.39
2023-04-19T06:40:02.619Z,1010.35
2023-04-19T06:41:02.613Z,1010.34
2023-04-19T06:42:02.588Z,1010.30
2023-04-19T06:43:02.594Z,1010.29
2023-04-19T06:44:02.563Z,1010.28
2023-04-19T06:45:07.581Z,1010.23
2023-04-19T06:46:02.570Z,1010.29
2023-04-19T06:47:02.638Z,1010.26
2023-04-19T06:48:02.834Z,1010.24
2023-04-19T06:49:02.508Z,1010.30
2023-04-19T06:50:02.507Z,1010.33
2023-04-19T06:51:02.496Z,1010.32
2023-04-19T06:52:02.476Z,1010.35
2023-04-19T06:53:04.712Z,1010.33
2023-04-19T06:54:02.457Z,1010.31
2023-04-19T06:55:02.452Z,1010.23
2023-04-19T06:56:07.453Z,1010.09
2023-04-19T06:57:02.433Z,1010.20
2023-04-19T06:58:02.407Z,1010.22
2023-04-19T06:59:02.395Z,1010.20
2023-04-19T07:00:02.399Z,1010.19
2023-04-19T07:01:02.438Z,1010.22
2023-04-19T07:02:02.431Z,1010.21
2023-04-19T07:03:02.496Z,1010.13
2023-04-19T07:04:02.620Z,1010.27
2023-04-19T07:05:02.351Z,1010.24
2023-04-19T07:06:02.311Z,1010.24
2023-04-19T07:07:07.470Z,1010.24
2023-04-19T07:08:02.304Z,1010.25
2023-04-19T07:09:02.296Z,1010.25
2023-04-19T07:10:02.319Z,1010.29
2023-04-19T07:11:02.258Z,1010.24
2023-04-19T07:12:02.509Z,1010.25
2023-04-19T07:13:02.281Z,1010.20
2023-04-19T07:14:02.219Z,1010.18
2023-04-19T07:15:02.214Z,1010.16
2023-04-19T07:16:02.266Z,1010.22
2023-04-19T07:17:02.180Z,1010.25
2023-04-19T07:18:07.276Z,1010.17
2023-04-19T07:19:02.163Z,1010.09
2023-04-19T07:20:02.201Z,1010.16
2023-04-19T07:21:02.170Z,1010.13
2023-04-19T07:22:02.130Z,1010.11
2023-04-19T07:23:02.116Z,1010.08
2023-04-19T07:24:02.124Z,1010.12
2023-04-19T07:25:02.190Z,1010.10
2023-04-19T07:26:02.088Z,1010.13
2023-04-19T07:27:02.179Z,1010.12
2023-04-19T07:28:02.059Z,1010.10
2023-04-19T07:29:07.122Z,1010.14
2023-04-19T07:30:02.063Z,1010.12
2023-04-19T07:31:02.037Z,1010.16
2023-04-19T07:32:02.089Z,1010.14
2023-04-19T07:33:02.071Z,1010.13
2023-04-19T07:34:01.987Z,1010.04
2023-04-19T07:35:01.994Z,1010.11
2023-04-19T07:36:02.038Z,1010.12
2023-04-19T07:37:02.098Z,1010.09
2023-04-19T07:38:01.941Z,1010.13
2023-04-19T07:39:01.971Z,1010.13
2023-04-19T07:40:06.970Z,1010.09
2023-04-19T07:41:01.909Z,1010.10
2023-04-19T07:42:01.897Z,1010.05
2023-04-19T07:43:01.904Z,1010.11
2023-04-19T07:44:01.873Z,1010.11
2023-04-19T07:45:01.915Z,1010.08
2023-04-19T07:46:01.915Z,1010.03
2023-04-19T07:47:01.843Z,1010.03
2023-04-19T07:48:01.936Z,1010.08
2023-04-19T07:49:01.831Z,1010.13
2023-04-19T07:50:01.843Z,1010.11
2023-04-19T07:51:07.023Z,1010.13
2023-04-19T07:52:01.853Z,1010.09
2023-04-19T07:53:01.830Z,1010.09
2023-04-19T07:54:01.772Z,1010.03
2023-04-19T07:55:01.753Z,1010.03
2023-04-19T07:56:01.733Z,1010.06
2023-04-19T07:57:01.722Z,1009.98
2023-04-19T07:58:01.756Z,1010.03
2023-04-19T07:59:08.564Z,1010.07
2023-04-19T08:00:02.273Z,1010.02
2023-04-19T08:01:01.738Z,1010.01
2023-04-19T08:02:06.777Z,1009.99
2023-04-19T08:03:01.820Z,1010.00
2023-04-19T08:04:01.967Z,1009.97
2023-04-19T08:05:01.935Z,1009.96
2023-04-19T08:06:01.646Z,1009.96
2023-04-19T08:07:01.651Z,1010.00
2023-04-19T08:08:01.613Z,1009.95
2023-04-19T08:09:01.607Z,1009.94
2023-04-19T08:10:01.787Z,1009.88
2023-04-19T08:11:02.273Z,1009.90
2023-04-19T08:12:01.683Z,1009.95
2023-04-19T08:13:06.978Z,1009.90
2023-04-19T08:14:09.416Z,1009.87
2023-04-19T08:15:14.818Z,1009.90
2023-04-19T08:16:40.194Z,1009.87
2023-04-19T08:18:01.609Z,1009.85
2023-04-19T08:19:01.481Z,1009.86
2023-04-19T08:20:01.593Z,1009.86
2023-04-19T08:21:01.459Z,1009.84
2023-04-19T08:22:01.468Z,1009.84
2023-04-19T08:23:10.393Z,1009.82
2023-04-19T08:24:07.457Z,1009.79
2023-04-19T08:25:01.425Z,1009.79
2023-04-19T08:26:01.408Z,1009.79
2023-04-19T08:27:01.471Z,1009.81
2023-04-19T08:28:01.396Z,1009.81
2023-04-19T08:29:01.372Z,1009.83
2023-04-19T08:30:01.372Z,1009.82
2023-04-19T08:31:01.351Z,1009.81
2023-04-19T08:32:01.412Z,1009.81
2023-04-19T08:33:01.423Z,1009.85
2023-04-19T08:34:01.330Z,1009.84
2023-04-19T08:35:06.337Z,1009.89
2023-04-19T08:36:01.299Z,1009.87
2023-04-19T08:37:04.315Z,1009.81
2023-04-19T08:38:02.663Z,1009.84
2023-04-19T08:39:06.742Z,1009.79
2023-04-19T08:40:02.275Z,1009.83
2023-04-19T08:41:01.242Z,1009.84
2023-04-19T08:42:06.816Z,1009.88
2023-04-19T08:43:01.216Z,1009.86
2023-04-19T08:44:01.210Z,1009.81
2023-04-19T08:46:06.255Z,1009.87
2023-04-19T08:47:01.180Z,1009.86
2023-04-19T08:48:02.148Z,1009.82
2023-04-19T08:49:01.149Z,1009.80
2023-04-19T08:50:14.044Z,1009.80
2023-04-19T08:51:05.018Z,1009.73
2023-04-19T08:52:01.123Z,1009.74
2023-04-19T08:53:12.358Z,1009.77
2023-04-19T08:54:01.102Z,1009.75
2023-04-19T08:55:01.177Z,1009.82
2023-04-19T08:57:06.078Z,1009.79
2023-04-19T08:58:01.606Z,1009.77
2023-04-19T08:59:15.602Z,1009.74
2023-04-19T09:00:01.043Z,1009.62
2023-04-19T09:01:01.053Z,1009.66
2023-04-19T09:02:01.130Z,1009.64
2023-04-19T09:03:01.218Z,1009.60
2023-04-19T09:04:07.283Z,1009.62
2023-04-19T09:05:01.224Z,1009.68
2023-04-19T09:06:01.074Z,1009.67
2023-04-19T09:07:00.938Z,1009.67
2023-04-19T09:08:05.950Z,1009.64
2023-04-19T09:09:00.919Z,1009.65
2023-04-19T09:10:03.695Z,1009.57
2023-04-19T09:11:00.921Z,1009.56
2023-04-19T09:12:00.893Z,1009.50
2023-04-19T09:13:00.872Z,1009.51
2023-04-19T09:14:00.856Z,1009.52
2023-04-19T09:15:02.527Z,1009.50
2023-04-19T09:16:00.922Z,1009.50
2023-04-19T09:17:00.825Z,1009.51
2023-04-19T09:18:00.845Z,1009.56
2023-04-19T09:20:00.798Z,1009.44
2023-04-19T09:21:00.782Z,1009.43
2023-04-19T09:22:00.776Z,1009.47
2023-04-19T09:23:00.757Z,1009.44
2023-04-19T09:24:03.059Z,1009.44
2023-04-19T09:26:22.154Z,1009.44
2023-04-19T09:27:00.733Z,1009.40
2023-04-19T09:28:00.705Z,1009.42
2023-04-19T09:29:00.685Z,1009.48
2023-04-19T09:30:05.713Z,1009.37
2023-04-19T09:31:15.282Z,1009.39
2023-04-19T09:32:00.783Z,1009.39
2023-04-19T09:33:00.704Z,1009.34
2023-04-19T09:34:00.633Z,1009.35
2023-04-19T09:35:00.628Z,1009.37
2023-04-19T09:36:00.605Z,1009.37
2023-04-19T09:37:10.998Z,1009.33
2023-04-19T09:38:06.244Z,1009.30
2023-04-19T09:39:01.567Z,1009.42
2023-04-19T09:40:00.574Z,1009.40
2023-04-19T09:41:05.565Z,1009.32
2023-04-19T09:42:00.532Z,1009.33
2023-04-19T09:43:12.983Z,1009.35
2023-04-19T09:44:21.615Z,1009.30
2023-04-19T09:45:21.459Z,1009.32
2023-04-19T09:46:01.575Z,1009.29
2023-04-19T09:47:00.510Z,1009.27
2023-04-19T09:48:00.554Z,1009.28
2023-04-19T09:49:04.043Z,1009.33
2023-04-19T09:50:04.344Z,1009.28
2023-04-19T09:51:05.951Z,1009.29
2023-04-19T09:52:06.455Z,1009.29
2023-04-19T09:53:00.413Z,1009.27
2023-04-19T09:54:00.397Z,1009.25
2023-04-19T09:55:01.042Z,1009.21
2023-04-19T09:56:02.746Z,1009.16
2023-04-19T09:57:01.595Z,1009.17
2023-04-19T09:58:00.379Z,1009.16
2023-04-19T09:59:12.594Z,1009.21
2023-04-19T10:00:01.373Z,1009.12
2023-04-19T10:01:13.425Z,1009.10
2023-04-19T10:02:00.404Z,1009.04
2023-04-19T10:03:05.369Z,1009.06
2023-04-19T10:04:13.749Z,1009.13
2023-04-19T10:05:19.023Z,1009.08
2023-04-19T10:06:10.195Z,1009.08
2023-04-19T10:08:00.602Z,1009.12
2023-04-19T10:09:00.220Z,1009.14
2023-04-19T10:10:11.766Z,1009.08
2023-04-19T10:11:01.202Z,1009.12
2023-04-19T10:12:06.624Z,1009.08
2023-04-19T10:13:18.344Z,1009.12
2023-04-19T10:14:05.208Z,1009.13
2023-04-19T10:15:00.201Z,1009.10
2023-04-19T10:16:11.585Z,1009.12
2023-04-19T10:17:00.199Z,1009.08
2023-04-19T10:18:00.187Z,1009.14
2023-04-19T10:19:00.130Z,1009.13
2023-04-19T10:20:00.163Z,1009.17
2023-04-19T10:21:00.212Z,1009.10
2023-04-19T10:22:00.073Z,1009.12
2023-04-19T10:23:00.060Z,1009.09
2023-04-19T10:24:00.068Z,1009.07
2023-04-19T10:25:05.074Z,1009.12
2023-04-19T10:26:00.045Z,1009.11
2023-04-19T10:27:00.016Z,1009.11
2023-04-19T10:28:00.012Z,1009.11
2023-04-19T10:29:00.013Z,1009.06
2023-04-19T10:30:00.027Z,1009.07
2023-04-19T10:30:59.983Z,1009.13
2023-04-19T10:31:59.989Z,1009.07
2023-04-19T10:33:00.012Z,1009.11
2023-04-19T10:33:59.942Z,1009.05
2023-04-19T10:34:59.935Z,1009.08
2023-04-19T10:36:04.944Z,1009.10
2023-04-19T10:36:59.912Z,1009.05
2023-04-19T10:37:59.906Z,1009.01
2023-04-19T10:38:59.885Z,1009.04
2023-04-19T10:39:59.883Z,1009.01
2023-04-19T10:40:59.885Z,1008.95
2023-04-19T10:41:59.869Z,1008.96
2023-04-19T10:42:59.842Z,1008.95
2023-04-19T10:43:59.829Z,1008.96
2023-04-19T10:44:59.824Z,1008.95
2023-04-19T10:46:00.046Z,1008.97
2023-04-19T10:47:04.822Z,1008.96
2023-04-19T10:47:59.858Z,1008.95
2023-04-19T10:48:59.766Z,1008.95
2023-04-19T10:49:59.753Z,1008.92
2023-04-19T10:50:59.788Z,1008.92
2023-04-19T10:51:59.762Z,1008.91
2023-04-19T10:52:59.740Z,1008.92
2023-04-19T10:53:59.718Z,1008.84
2023-04-19T10:54:59.705Z,1008.86
2023-04-19T10:55:59.704Z,1008.82
2023-04-19T10:56:59.679Z,1008.80
2023-04-19T10:58:04.700Z,1008.75
2023-04-19T10:58:59.658Z,1008.79
2023-04-19T10:59:59.645Z,1008.70
2023-04-19T11:00:59.695Z,1008.74
2023-04-19T11:01:59.733Z,1008.80
2023-04-19T11:02:59.766Z,1008.74
2023-04-19T11:03:59.942Z,1008.75
2023-04-19T11:04:59.599Z,1008.66
2023-04-19T11:05:59.593Z,1008.63
2023-04-19T11:06:59.573Z,1008.68
2023-04-19T11:07:59.555Z,1008.64
2023-04-19T11:09:04.572Z,1008.73
2023-04-19T11:09:59.539Z,1008.72
2023-04-19T11:10:59.567Z,1008.63
2023-04-19T11:11:59.507Z,1008.63
2023-04-19T11:12:59.501Z,1008.52
2023-04-19T11:13:59.485Z,1008.59
2023-04-19T11:14:59.487Z,1008.57
2023-04-19T11:15:59.551Z,1008.58
2023-04-19T11:16:59.517Z,1008.52
2023-04-19T11:18:11.926Z,1008.45
2023-04-19T11:19:00.429Z,1008.47
2023-04-19T11:20:04.441Z,1008.39
2023-04-19T11:20:59.412Z,1008.40
2023-04-19T11:21:59.434Z,1008.38
2023-04-19T11:22:59.388Z,1008.42
2023-04-19T11:23:59.372Z,1008.35
2023-04-19T11:24:59.361Z,1008.38
2023-04-19T11:25:59.351Z,1008.28
2023-04-19T11:26:59.347Z,1008.28
2023-04-19T11:27:59.333Z,1008.24
2023-04-19T11:28:59.316Z,1008.23
2023-04-19T11:29:59.308Z,1008.17
2023-04-19T11:31:04.378Z,1008.21
2023-04-19T11:31:59.289Z,1008.20
2023-04-19T11:32:59.283Z,1008.18
2023-04-19T11:33:59.426Z,1008.19
2023-04-19T11:34:59.255Z,1008.12
2023-04-19T11:35:59.241Z,1008.13
2023-04-19T11:36:59.232Z,1008.24
2023-04-19T11:37:59.254Z,1008.11
2023-04-19T11:38:59.224Z,1008.09
2023-04-19T11:39:59.202Z,1008.09
2023-04-19T11:40:59.188Z,1008.08
2023-04-19T11:42:04.198Z,1008.05
2023-04-19T11:42:59.166Z,1008.02
2023-04-19T11:43:59.146Z,1007.97
2023-04-19T11:44:59.144Z,1007.97
2023-04-19T11:45:59.141Z,1007.93
2023-04-19T11:46:59.222Z,1007.99
2023-04-19T11:47:59.150Z,1007.96
2023-04-19T11:48:59.110Z,1007.86
2023-04-19T11:49:59.104Z,1007.92
2023-04-19T11:50:59.072Z,1007.94
2023-04-19T11:51:59.076Z,1007.92
2023-04-19T11:53:04.083Z,1007.93
2023-04-19T11:53:59.041Z,1007.93
2023-04-19T11:54:59.021Z,1007.96
2023-04-19T11:55:59.023Z,1007.92
2023-04-19T11:56:59.008Z,1007.88
2023-04-19T11:57:59.000Z,1007.90
2023-04-19T11:58:59.000Z,1007.85
2023-04-19T11:59:58.986Z,1007.87
2023-04-19T12:00:59.030Z,1007.87
2023-04-19T12:01:58.991Z,1007.86
2023-04-19T12:02:59.110Z,1007.84
2023-04-19T12:04:03.995Z,1007.90
2023-04-19T12:04:59.170Z,1007.80
2023-04-19T12:05:59.072Z,1007.79
2023-04-19T12:06:58.901Z,1007.77
2023-04-19T12:07:58.910Z,1007.79
2023-04-19T12:08:58.875Z,1007.79
2023-04-19T12:09:58.852Z,1007.73
2023-04-19T12:10:58.843Z,1007.68